createdAt,value
2019-01-06T00:02:33.769Z,96260.63
2019-01-06T00:05:22.786Z,96254.21
2019-01-06T00:08:10.925Z,96255.52
2019-01-06T00:10:59.087Z,96250.37
2019-01-06T00:13:47.186Z,96247.35
2019-01-06T00:16:27.950Z,96250.75
2019-01-06T00:19:16.366Z,96261.96
2019-01-06T00:22:04.867Z,96251.59
2019-01-06T00:24:52.967Z,96256.60
2019-01-06T00:27:41.103Z,96249.09
2019-01-06T00:30:29.225Z,96253.36
2019-01-06T00:33:17.495Z,96246.13
2019-01-06T00:36:02.388Z,96264.11
2019-01-06T00:38:50.533Z,96261.53
2019-01-06T00:41:38.656Z,96272.27
2019-01-06T00:44:26.791Z,96275.67
2019-01-06T00:47:14.897Z,96277.08
2019-01-06T00:50:03.033Z,96259.36
2019-01-06T00:52:51.306Z,96284.01
2019-01-06T00:55:39.419Z,96276.72
2019-01-06T00:58:25.181Z,96272.50
2019-01-06T01:04:21.857Z,96277.81
2019-01-06T01:07:06.377Z,96290.14
2019-01-06T01:09:54.546Z,96280.23
2019-01-06T01:12:42.687Z,96287.05
2019-01-06T01:15:31.079Z,96286.61
2019-01-06T01:18:19.484Z,96289.19
2019-01-06T01:20:59.001Z,96286.44
2019-01-06T01:23:40.616Z,96294.19
2019-01-06T01:26:28.728Z,96298.76
2019-01-06T01:29:16.868Z,96295.82
2019-01-06T01:32:00.814Z,96299.70
2019-01-06T01:34:48.961Z,96304.83
2019-01-06T01:37:37.064Z,96300.62
2019-01-06T01:40:25.407Z,96308.42
2019-01-06T01:43:13.545Z,96295.34
2019-01-06T01:45:56.034Z,96312.19
2019-01-06T01:48:44.165Z,96312.19
2019-01-06T01:51:32.282Z,96312.08
2019-01-06T01:54:20.423Z,96308.37
2019-01-06T01:57:08.537Z,96316.81
2019-01-06T01:59:57.074Z,96311.21
2019-01-06T02:02:45.486Z,96317.19
2019-01-06T02:05:33.634Z,96318.03
2019-01-06T02:08:21.791Z,96328.21
2019-01-06T02:11:09.907Z,96313.47
2019-01-06T02:13:58.038Z,96314.33
2019-01-06T02:16:46.421Z,96311.21
2019-01-06T02:19:34.559Z,96306.58
2019-01-06T02:22:22.741Z,96311.28
2019-01-06T02:25:10.887Z,96306.17
2019-01-06T02:27:58.993Z,96310.80
2019-01-06T02:30:47.139Z,96309.98
2019-01-06T02:33:35.295Z,96313.77
2019-01-06T02:36:23.448Z,96313.23
2019-01-06T02:39:01.699Z,96305.61
2019-01-06T02:41:49.830Z,96319.55
2019-01-06T02:44:38.006Z,96307.06
2019-01-06T02:47:26.105Z,96308.92
2019-01-06T02:50:14.251Z,96307.41
2019-01-06T02:53:02.364Z,96304.94
2019-01-06T02:55:44.090Z,96302.24
2019-01-06T02:58:32.204Z,96302.11
2019-01-06T03:01:20.372Z,96294.24
2019-01-06T03:04:08.947Z,96294.84
2019-01-06T03:06:57.065Z,96303.44
2019-01-06T03:09:42.693Z,96308.28
2019-01-06T03:12:31.119Z,96283.17
2019-01-06T03:15:19.447Z,96289.08
2019-01-06T03:18:07.565Z,96286.38
2019-01-06T03:20:55.719Z,96277.86
2019-01-06T03:23:44.194Z,96283.41
2019-01-06T03:26:25.665Z,96284.17
2019-01-06T03:29:13.834Z,96284.63
2019-01-06T03:32:01.981Z,96278.73
2019-01-06T03:34:50.113Z,96276.09
2019-01-06T03:37:38.252Z,96273.10
2019-01-06T03:40:26.533Z,96273.23
2019-01-06T03:43:14.678Z,96271.84
2019-01-06T03:46:09.688Z,96277.20
2019-01-06T03:48:57.808Z,96269.91
2019-01-06T03:51:45.942Z,96272.58
2019-01-06T03:54:34.331Z,96275.44
2019-01-06T03:57:22.468Z,96276.77
2019-01-06T04:00:10.883Z,96275.50
2019-01-06T04:02:59.675Z,96268.69
2019-01-06T04:05:47.808Z,96272.66
2019-01-06T04:08:35.918Z,96269.91
2019-01-06T04:11:24.089Z,96264.00
2019-01-06T04:14:12.200Z,96268.44
2019-01-06T04:17:00.380Z,96274.13
2019-01-06T04:19:48.503Z,96265.25
2019-01-06T04:22:36.646Z,96266.53
2019-01-06T04:25:24.791Z,96262.62
2019-01-06T04:28:12.908Z,96251.48
2019-01-06T04:31:01.042Z,96261.64
2019-01-06T04:33:49.158Z,96252.77
2019-01-06T04:36:37.291Z,96256.94
2019-01-06T04:39:27.341Z,96254.41
2019-01-06T04:42:15.475Z,96258.78
2019-01-06T04:45:03.621Z,96261.26
2019-01-06T04:47:51.752Z,96260.58
2019-01-06T04:50:39.890Z,96254.67
2019-01-06T04:53:27.994Z,96264.06
2019-01-06T04:56:16.126Z,96266.08
2019-01-06T04:59:04.268Z,96268.17
2019-01-06T05:01:52.416Z,96268.55
2019-01-06T05:04:40.520Z,96269.48
2019-01-06T05:07:28.653Z,96265.42
2019-01-06T05:10:16.773Z,96265.50
2019-01-06T05:13:04.915Z,96270.19
2019-01-06T05:15:53.044Z,96265.15
2019-01-06T05:18:41.476Z,96267.69
2019-01-06T05:21:29.598Z,96270.19
2019-01-06T05:24:17.735Z,96265.91
2019-01-06T05:27:05.843Z,96257.98
2019-01-06T05:29:53.991Z,96251.08
2019-01-06T05:32:42.415Z,96252.00
2019-01-06T05:35:30.551Z,96250.29
2019-01-06T05:38:18.659Z,96256.33
2019-01-06T05:41:06.795Z,96254.07
2019-01-06T05:43:51.032Z,96255.41
2019-01-06T05:46:39.442Z,96261.83
2019-01-06T05:49:27.553Z,96272.91
2019-01-06T05:52:15.691Z,96271.27
2019-01-06T05:55:04.427Z,96273.31
2019-01-06T05:57:52.581Z,96272.12
2019-01-06T06:00:31.692Z,96268.17
2019-01-06T06:03:19.825Z,96264.34
2019-01-06T06:06:07.952Z,96272.45
2019-01-06T06:08:56.091Z,96276.01
2019-01-06T06:11:44.204Z,96270.81
2019-01-06T06:14:32.609Z,96280.28
2019-01-06T06:17:20.728Z,96280.98
2019-01-06T06:20:08.883Z,96282.08
2019-01-06T06:22:57.192Z,96286.25
2019-01-06T06:25:45.347Z,96282.84
2019-01-06T06:28:33.465Z,96288.04
2019-01-06T06:31:22.157Z,96284.34
2019-01-06T06:34:10.269Z,96279.84
2019-01-06T06:36:58.402Z,96285.48
2019-01-06T06:39:39.427Z,96298.05
2019-01-06T06:42:27.562Z,96287.84
2019-01-06T06:45:16.028Z,96277.34
2019-01-06T06:48:04.448Z,96298.00
2019-01-06T06:50:52.561Z,96303.39
2019-01-06T06:53:41.006Z,96309.19
2019-01-06T06:56:29.139Z,96309.05
2019-01-06T06:59:17.279Z,96303.91
2019-01-06T07:02:43.491Z,96308.89
2019-01-06T07:05:31.627Z,96303.39
2019-01-06T07:08:19.740Z,96317.47
2019-01-06T07:11:08.151Z,96306.77
2019-01-06T07:13:56.483Z,96313.63
2019-01-06T07:17:22.693Z,96314.44
2019-01-06T07:20:10.817Z,96324.79
2019-01-06T07:22:58.934Z,96333.39
2019-01-06T07:25:47.090Z,96325.66
2019-01-06T07:28:30.239Z,96335.81
2019-01-06T07:31:18.369Z,96326.15
2019-01-06T07:34:06.751Z,96321.59
2019-01-06T07:36:54.892Z,96338.07
2019-01-06T07:39:42.998Z,96343.36
2019-01-06T07:42:31.130Z,96335.44
2019-01-06T07:45:19.245Z,96351.91
2019-01-06T07:48:07.384Z,96351.98
2019-01-06T07:50:55.503Z,96347.41
2019-01-06T07:53:43.699Z,96361.00
2019-01-06T07:56:31.834Z,96364.35
2019-01-06T07:59:19.964Z,96361.11
2019-01-06T08:02:08.083Z,96370.15
2019-01-06T08:04:56.229Z,96372.71
2019-01-06T08:07:44.343Z,96370.50
2019-01-06T08:10:32.493Z,96376.96
2019-01-06T08:13:20.615Z,96377.27
2019-01-06T08:16:08.751Z,96372.85
2019-01-06T08:18:51.768Z,96376.23
2019-01-06T08:21:39.918Z,96387.61
2019-01-06T08:24:28.012Z,96389.41
2019-01-06T08:27:16.148Z,96392.13
2019-01-06T08:30:04.588Z,96389.71
2019-01-06T08:32:52.733Z,96393.20
2019-01-06T08:35:40.848Z,96392.84
2019-01-06T08:38:29.032Z,96399.24
2019-01-06T08:41:17.152Z,96400.45
2019-01-06T08:44:05.271Z,96401.02
2019-01-06T08:46:53.447Z,96406.56
2019-01-06T08:49:41.626Z,96399.81
2019-01-06T08:52:29.754Z,96402.86
2019-01-06T08:55:18.060Z,96402.64
2019-01-06T08:58:06.224Z,96412.77
2019-01-06T09:00:54.638Z,96401.86
2019-01-06T09:03:42.812Z,96413.38
2019-01-06T09:06:30.878Z,96412.37
2019-01-06T09:09:19.212Z,96418.39
2019-01-06T09:12:07.326Z,96422.51
2019-01-06T09:14:55.454Z,96422.51
2019-01-06T09:17:43.568Z,96428.72
2019-01-06T09:20:26.813Z,96430.98
2019-01-06T09:23:14.929Z,96439.77
2019-01-06T09:26:03.097Z,96434.73
2019-01-06T09:28:51.400Z,96432.79
2019-01-06T09:31:39.527Z,96449.30
2019-01-06T09:34:27.906Z,96443.97
2019-01-06T09:37:16.034Z,96441.90
2019-01-06T09:40:04.148Z,96439.36
2019-01-06T09:42:52.419Z,96440.39
2019-01-06T09:45:40.931Z,96442.66
2019-01-06T09:48:29.036Z,96452.48
2019-01-06T09:51:17.193Z,96443.31
2019-01-06T09:54:03.661Z,96450.35
2019-01-06T09:56:51.793Z,96439.88
2019-01-06T09:59:39.907Z,96447.97
2019-01-06T10:02:28.075Z,96452.55
2019-01-06T10:05:16.202Z,96460.72
2019-01-06T10:08:04.334Z,96450.77
2019-01-06T10:10:52.446Z,96449.99
2019-01-06T10:13:40.604Z,96461.00
2019-01-06T10:16:28.747Z,96459.13
2019-01-06T10:19:16.884Z,96458.25
2019-01-06T10:22:05.042Z,96454.49
2019-01-06T10:24:53.150Z,96455.23
2019-01-06T10:27:41.727Z,96462.06
2019-01-06T10:30:29.835Z,96460.73
2019-01-06T10:33:11.526Z,96463.70
2019-01-06T10:35:59.638Z,96462.61
2019-01-06T10:38:48.675Z,96467.84
2019-01-06T10:41:36.777Z,96466.89
2019-01-06T10:44:24.906Z,96458.38
2019-01-06T10:47:13.250Z,96465.98
2019-01-06T10:50:01.380Z,96464.98
2019-01-06T10:52:49.917Z,96457.33
2019-01-06T10:55:38.024Z,96469.73
2019-01-06T10:58:26.159Z,96469.56
2019-01-06T11:01:14.262Z,96461.01
2019-01-06T11:04:02.405Z,96463.08
2019-01-06T11:06:50.521Z,96452.78
2019-01-06T11:09:38.934Z,96460.19
2019-01-06T11:12:27.050Z,96459.80
2019-01-06T11:15:15.185Z,96465.51
2019-01-06T11:18:03.300Z,96462.97
2019-01-06T11:20:51.430Z,96451.22
2019-01-06T11:23:39.539Z,96449.16
2019-01-06T11:26:27.674Z,96459.53
2019-01-06T11:29:16.092Z,96455.93
2019-01-06T11:32:05.086Z,96464.97
2019-01-06T11:34:48.874Z,96467.27
2019-01-06T11:37:56.099Z,96470.23
2019-01-06T11:40:44.209Z,96470.62
2019-01-06T11:43:32.345Z,96473.16
2019-01-06T11:46:20.482Z,96467.31
2019-01-06T11:49:08.630Z,96465.16
2019-01-06T11:51:56.735Z,96461.80
2019-01-06T11:54:44.990Z,96461.03
2019-01-06T11:57:33.096Z,96468.77
2019-01-06T12:00:21.227Z,96478.11
2019-01-06T12:03:09.331Z,96471.98
2019-01-06T12:05:57.462Z,96472.42
2019-01-06T12:08:45.883Z,96469.42
2019-01-06T12:11:33.988Z,96473.77
2019-01-06T12:14:22.123Z,96469.02
2019-01-06T12:17:10.429Z,96478.11
2019-01-06T12:19:58.589Z,96470.97
2019-01-06T12:22:46.698Z,96475.17
2019-01-06T12:25:34.822Z,96473.81
2019-01-06T12:28:22.923Z,96481.09
2019-01-06T12:31:11.128Z,96478.58
2019-01-06T12:33:59.239Z,96484.44
2019-01-06T12:36:47.372Z,96485.06
2019-01-06T12:39:35.475Z,96481.58
2019-01-06T12:42:23.605Z,96490.26
2019-01-06T12:45:11.985Z,96486.47
2019-01-06T12:48:00.134Z,96492.38
2019-01-06T12:50:48.317Z,96480.63
2019-01-06T12:53:40.012Z,96484.70
2019-01-06T12:56:26.291Z,96487.02
2019-01-06T12:59:14.405Z,96485.98
2019-01-06T13:02:02.806Z,96486.22
2019-01-06T13:04:50.993Z,96495.20
2019-01-06T13:07:39.331Z,96495.36
2019-01-06T13:10:27.114Z,96499.77
2019-01-06T13:13:15.236Z,96507.27
2019-01-06T13:16:03.376Z,96505.19
2019-01-06T13:18:51.501Z,96512.69
2019-01-06T13:21:39.606Z,96507.63
2019-01-06T13:24:27.744Z,96509.64
2019-01-06T13:27:15.863Z,96514.09
2019-01-06T13:30:04.024Z,96517.14
2019-01-06T13:32:52.141Z,96515.63
2019-01-06T13:35:40.630Z,96520.75
2019-01-06T13:38:28.794Z,96525.20
2019-01-06T13:41:17.063Z,96528.60
2019-01-06T13:43:58.873Z,96530.63
2019-01-06T13:46:47.016Z,96537.56
2019-01-06T13:49:35.199Z,96541.03
2019-01-06T13:52:23.305Z,96535.44
2019-01-06T13:55:11.430Z,96534.69
2019-01-06T13:57:59.552Z,96539.45
2019-01-06T14:00:47.684Z,96538.53
2019-01-06T14:03:35.793Z,96540.78
2019-01-06T14:06:23.923Z,96539.56
2019-01-06T14:09:12.065Z,96544.56
2019-01-06T14:12:00.211Z,96541.11
2019-01-06T14:14:48.344Z,96547.87
2019-01-06T14:17:36.850Z,96556.34
2019-01-06T14:20:25.390Z,96549.92
2019-01-06T14:23:13.532Z,96545.00
2019-01-06T14:26:01.926Z,96557.98
2019-01-06T14:28:50.332Z,96554.70
2019-01-06T14:31:38.438Z,96554.75
2019-01-06T14:34:26.566Z,96556.39
2019-01-06T14:37:14.674Z,96557.75
2019-01-06T14:40:02.804Z,96563.59
2019-01-06T14:42:50.921Z,96564.08
2019-01-06T14:45:39.060Z,96566.70
2019-01-06T14:48:18.341Z,96575.16
2019-01-06T14:51:06.821Z,96575.06
2019-01-06T14:53:54.937Z,96583.54
2019-01-06T14:56:43.069Z,96578.73
2019-01-06T14:59:22.089Z,96581.88
2019-01-06T15:02:10.465Z,96585.72
2019-01-06T15:04:58.623Z,96586.27
2019-01-06T15:07:46.730Z,96585.72
2019-01-06T15:10:34.867Z,96587.31
2019-01-06T15:13:22.980Z,96584.68
2019-01-06T15:16:11.118Z,96589.08
2019-01-06T15:18:59.237Z,96597.62
2019-01-06T15:21:47.371Z,96594.27
2019-01-06T15:24:35.478Z,96590.95
2019-01-06T15:27:23.619Z,96591.81
2019-01-06T15:30:11.757Z,96600.05
2019-01-06T15:32:59.894Z,96592.43
2019-01-06T15:35:48.000Z,96592.69
2019-01-06T15:38:28.925Z,96595.38
2019-01-06T15:41:17.731Z,96597.81
2019-01-06T15:44:05.843Z,96588.84
2019-01-06T15:46:53.957Z,96592.81
2019-01-06T15:49:42.241Z,96593.28
2019-01-06T15:52:30.370Z,96588.39
2019-01-06T15:55:14.797Z,96588.34
2019-01-06T15:58:02.923Z,96579.09
2019-01-06T16:00:51.035Z,96575.30
2019-01-06T16:03:39.173Z,96576.53
2019-01-06T16:06:26.233Z,96578.42
2019-01-06T16:09:14.415Z,96588.23
2019-01-06T16:12:02.561Z,96582.80
2019-01-06T16:14:50.710Z,96590.86
2019-01-06T16:17:39.376Z,96589.62
2019-01-06T16:20:27.512Z,96589.98
2019-01-06T16:23:15.685Z,96589.20
2019-01-06T16:26:04.179Z,96597.55
2019-01-06T16:28:52.319Z,96600.05
2019-01-06T16:31:40.433Z,96597.12
2019-01-06T16:34:28.582Z,96600.16
2019-01-06T16:37:16.698Z,96601.44
2019-01-06T16:40:25.303Z,96598.91
2019-01-06T16:43:13.450Z,96604.44
2019-01-06T16:46:01.726Z,96598.20
2019-01-06T16:48:49.865Z,96606.09
2019-01-06T16:51:38.002Z,96600.66
2019-01-06T16:54:26.172Z,96609.13
2019-01-06T16:57:14.300Z,96605.98
2019-01-06T17:00:02.532Z,96604.33
2019-01-06T17:02:50.682Z,96620.66
2019-01-06T17:05:38.849Z,96611.70
2019-01-06T17:08:27.010Z,96627.80
2019-01-06T17:11:15.177Z,96629.61
2019-01-06T17:14:03.296Z,96620.05
2019-01-06T17:16:51.458Z,96621.45
2019-01-06T17:19:39.577Z,96617.98
2019-01-06T17:22:27.785Z,96611.95
2019-01-06T17:25:16.024Z,96616.81
2019-01-06T17:28:04.446Z,96610.84
2019-01-06T17:30:52.614Z,96620.16
2019-01-06T17:33:40.735Z,96616.10
2019-01-06T17:36:28.883Z,96617.70
2019-01-06T17:39:16.997Z,96617.37
2019-01-06T17:42:05.135Z,96609.20
2019-01-06T17:44:53.255Z,96605.50
2019-01-06T17:47:38.620Z,96624.09
2019-01-06T17:50:27.487Z,96618.18
2019-01-06T17:53:15.613Z,96618.59
2019-01-06T17:56:04.073Z,96625.86
2019-01-06T17:58:52.181Z,96631.78
2019-01-06T18:01:40.359Z,96630.06
2019-01-06T18:04:28.495Z,96634.22
2019-01-06T18:07:17.398Z,96635.60
2019-01-06T18:10:05.706Z,96630.55
2019-01-06T18:13:12.834Z,96631.40
2019-01-06T18:16:01.139Z,96627.13
2019-01-06T18:18:49.461Z,96630.97
2019-01-06T18:21:37.188Z,96626.64
2019-01-06T18:24:21.709Z,96621.53
2019-01-06T18:27:09.837Z,96629.69
2019-01-06T18:29:57.982Z,96637.85
2019-01-06T18:32:46.312Z,96643.79
2019-01-06T18:35:34.702Z,96637.44
2019-01-06T18:38:23.190Z,96647.69
2019-01-06T18:41:11.572Z,96654.71
2019-01-06T18:43:59.711Z,96643.48
2019-01-06T18:46:47.846Z,96646.47
2019-01-06T18:49:36.637Z,96656.11
2019-01-06T18:52:24.771Z,96654.94
2019-01-06T18:55:12.879Z,96661.36
2019-01-06T18:58:01.205Z,96654.52
2019-01-06T19:00:49.577Z,96661.00
2019-01-06T19:03:26.715Z,96663.55
2019-01-06T19:06:15.024Z,96665.25
2019-01-06T19:09:03.154Z,96657.34
2019-01-06T19:11:51.570Z,96654.09
2019-01-06T19:14:39.697Z,96650.31
2019-01-06T19:17:27.857Z,96655.13
2019-01-06T19:20:15.987Z,96657.56
2019-01-06T19:23:04.117Z,96648.77
2019-01-06T19:25:52.524Z,96644.52
2019-01-06T19:28:40.653Z,96645.87
2019-01-06T19:31:29.046Z,96655.31
2019-01-06T19:34:17.183Z,96663.34
2019-01-06T19:37:05.825Z,96658.97
2019-01-06T19:39:53.930Z,96659.41
2019-01-06T19:42:42.566Z,96668.68
2019-01-06T19:45:30.670Z,96674.60
2019-01-06T19:48:19.391Z,96660.92
2019-01-06T19:51:07.527Z,96671.96
2019-01-06T19:53:55.663Z,96667.52
2019-01-06T19:56:44.463Z,96671.05
2019-01-06T19:59:32.631Z,96667.20
2019-01-06T20:02:20.735Z,96670.01
2019-01-06T20:05:09.302Z,96664.09
2019-01-06T20:07:57.718Z,96674.52
2019-01-06T20:10:46.041Z,96671.09
2019-01-06T20:13:34.186Z,96674.98
2019-01-06T20:16:22.499Z,96677.68
2019-01-06T20:19:04.927Z,96675.17
2019-01-06T20:21:48.072Z,96682.22
2019-01-06T20:24:36.548Z,96682.65
2019-01-06T20:27:24.707Z,96690.38
2019-01-06T20:30:12.873Z,96681.00
2019-01-06T20:33:01.379Z,96687.41
2019-01-06T20:35:49.702Z,96680.20
2019-01-06T20:38:37.850Z,96680.63
2019-01-06T20:41:26.006Z,96681.91
2019-01-06T20:44:15.021Z,96684.73
2019-01-06T20:47:03.328Z,96688.84
2019-01-06T20:49:49.208Z,96692.95
2019-01-06T20:52:41.647Z,96693.05
2019-01-06T20:55:46.509Z,96692.05
2019-01-06T20:58:34.830Z,96696.05
2019-01-06T21:01:23.461Z,96690.65
2019-01-06T21:04:11.652Z,96683.45
2019-01-06T21:06:59.982Z,96687.83
2019-01-06T21:09:48.106Z,96694.23
2019-01-06T21:12:36.250Z,96690.83
2019-01-06T21:15:44.960Z,96683.50
2019-01-06T21:18:33.118Z,96700.27
2019-01-06T21:21:21.574Z,96696.30
2019-01-06T21:24:10.035Z,96702.33
2019-01-06T21:26:58.275Z,96693.44
2019-01-06T21:29:46.440Z,96698.02
2019-01-06T21:32:34.547Z,96700.09
2019-01-06T21:35:22.972Z,96706.61
2019-01-06T21:38:11.085Z,96710.08
2019-01-06T21:40:59.237Z,96713.12
2019-01-06T21:43:47.373Z,96713.92
2019-01-06T21:46:35.858Z,96719.41
2019-01-06T21:49:23.984Z,96729.02
2019-01-06T21:52:12.126Z,96724.48
2019-01-06T21:55:00.301Z,96728.41
2019-01-06T21:57:48.466Z,96726.33
2019-01-06T22:00:36.600Z,96728.11
2019-01-06T22:03:24.747Z,96720.52
2019-01-06T22:06:12.909Z,96716.57
2019-01-06T22:09:01.059Z,96721.59
2019-01-06T22:11:49.232Z,96716.41
2019-01-06T22:14:37.377Z,96722.62
2019-01-06T22:17:25.524Z,96710.28
2019-01-06T22:20:13.674Z,96714.45
2019-01-06T22:22:54.763Z,96718.55
2019-01-06T22:25:43.142Z,96712.95
2019-01-06T22:28:31.243Z,96713.86
2019-01-06T22:31:25.155Z,96718.99
2019-01-06T22:34:09.527Z,96721.11
2019-01-06T22:36:57.679Z,96719.83
2019-01-06T22:39:46.067Z,96721.91
2019-01-06T22:42:34.215Z,96726.18
2019-01-06T22:45:22.354Z,96727.24
2019-01-06T22:48:10.497Z,96730.39
2019-01-06T22:50:58.612Z,96731.03
2019-01-06T22:53:46.761Z,96730.72
2019-01-06T22:56:34.872Z,96742.87
2019-01-06T22:59:23.023Z,96738.77
2019-01-06T23:02:11.162Z,96736.70
2019-01-06T23:04:59.312Z,96734.94
2019-01-06T23:07:47.445Z,96733.66
2019-01-06T23:10:35.597Z,96734.18
2019-01-06T23:13:23.721Z,96736.16
2019-01-06T23:16:11.873Z,96739.04
2019-01-06T23:18:59.988Z,96740.00
2019-01-06T23:21:48.128Z,96734.60
2019-01-06T23:24:36.261Z,96740.41
2019-01-06T23:27:14.985Z,96742.17
2019-01-06T23:30:03.115Z,96746.45
2019-01-06T23:32:51.532Z,96737.91
2019-01-06T23:35:39.645Z,96735.14
2019-01-06T23:38:27.793Z,96729.06
2019-01-06T23:41:15.905Z,96733.66
2019-01-06T23:44:04.093Z,96730.87
2019-01-06T23:46:44.168Z,96736.80
2019-01-06T23:49:32.319Z,96741.39
2019-01-06T23:52:20.507Z,96740.52
2019-01-06T23:55:08.933Z,96739.35
2019-01-06T23:57:57.045Z,96738.61
